sensor_id;sensor_type;location;lat;lon;timestamp;pressure;altitude;pressure_sealevel;temperature;humidity
57990;BME280;58373;51.824;5.564;2024-02-26T00:01:19;99863.56;;;4.37;100.00
57990;BME280;58373;51.824;5.564;2024-02-26T00:03:44;99863.78;;;4.34;100.00
57990;BME280;58373;51.824;5.564;2024-02-26T00:06:12;99859.47;;;4.34;100.00
57990;BME280;58373;51.824;5.564;2024-02-26T00:08:37;99863.34;;;4.40;100.00
57990;BME280;58373;51.824;5.564;2024-02-26T00:11:02;99861.31;;;4.32;100.00
57990;BME280;58373;51.824;5.564;2024-02-26T00:13:27;99859.09;;;4.28;100.00
57990;BME280;58373;51.824;5.564;2024-02-26T00:15:53;99858.88;;;4.31;100.00
57990;BME280;58373;51.824;5.564;2024-02-26T00:18:18;99858.47;;;4.24;100.00
57990;BME280;58373;51.824;5.564;2024-02-26T00:20:43;99845.53;;;4.25;100.00
57990;BME280;58373;51.824;5.564;2024-02-26T00:23:08;99851.50;;;4.26;100.00
57990;BME280;58373;51.824;5.564;2024-02-26T00:25:33;99855.09;;;4.23;100.00
57990;BME280;58373;51.824;5.564;2024-02-26T00:27:59;99853.75;;;4.31;100.00
57990;BME280;58373;51.824;5.564;2024-02-26T00:30:24;99859.50;;;4.21;100.00
57990;BME280;58373;51.824;5.564;2024-02-26T00:32:49;99857.75;;;4.22;100.00
57990;BME280;58373;51.824;5.564;2024-02-26T00:35:15;99857.94;;;4.32;100.00
57990;BME280;58373;51.824;5.564;2024-02-26T00:37:40;99849.06;;;4.24;100.00
57990;BME280;58373;51.824;5.564;2024-02-26T00:40:08;99854.75;;;4.28;100.00
57990;BME280;58373;51.824;5.564;2024-02-26T00:42:33;99843.69;;;4.28;100.00
57990;BME280;58373;51.824;5.564;2024-02-26T00:44:59;99841.44;;;4.23;100.00
57990;BME280;58373;51.824;5.564;2024-02-26T00:47:24;99838.53;;;4.28;100.00
57990;BME280;58373;51.824;5.564;2024-02-26T00:49:49;99836.91;;;4.26;100.00
57990;BME280;58373;51.824;5.564;2024-02-26T00:52:14;99844.00;;;4.23;100.00
57990;BME280;58373;51.824;5.564;2024-02-26T00:54:39;99843.69;;;4.28;100.00
57990;BME280;58373;51.824;5.564;2024-02-26T00:57:05;99848.13;;;4.25;100.00
57990;BME280;58373;51.824;5.564;2024-02-26T00:59:30;99843.25;;;4.34;100.00
57990;BME280;58373;51.824;5.564;2024-02-26T01:01:55;99847.38;;;4.23;100.00
57990;BME280;58373;51.824;5.564;2024-02-26T01:04:20;99849.94;;;4.23;100.00
57990;BME280;58373;51.824;5.564;2024-02-26T01:06:45;99850.44;;;4.29;100.00
57990;BME280;58373;51.824;5.564;2024-02-26T01:09:11;99849.06;;;4.24;100.00
57990;BME280;58373;51.824;5.564;2024-02-26T01:11:36;99851.63;;;4.24;100.00
57990;BME280;58373;51.824;5.564;2024-02-26T01:14:01;99861.16;;;4.22;100.00
57990;BME280;58373;51.824;5.564;2024-02-26T01:16:26;99858.38;;;4.25;100.00
57990;BME280;58373;51.824;5.564;2024-02-26T01:18:54;99854.75;;;4.28;100.00
57990;BME280;58373;51.824;5.564;2024-02-26T01:21:19;99852.31;;;4.26;100.00
57990;BME280;58373;51.824;5.564;2024-02-26T01:23:44;99858.25;;;4.27;100.00
57990;BME280;58373;51.824;5.564;2024-02-26T01:26:09;99860.94;;;4.25;100.00
57990;BME280;58373;51.824;5.564;2024-02-26T01:28:34;99864.44;;;4.24;100.00
57990;BME280;58373;51.824;5.564;2024-02-26T01:31:00;99865.97;;;4.27;100.00
57990;BME280;58373;51.824;5.564;2024-02-26T01:33:25;99873.06;;;4.23;100.00
57990;BME280;58373;51.824;5.564;2024-02-26T01:35:51;99881.47;;;4.25;100.00
57990;BME280;58373;51.824;5.564;2024-02-26T01:38:16;99882.88;;;4.30;100.00
57990;BME280;58373;51.824;5.564;2024-02-26T01:40:41;99888.25;;;4.26;100.00
57990;BME280;58373;51.824;5.564;2024-02-26T01:43:06;99892.44;;;4.28;100.00
57990;BME280;58373;51.824;5.564;2024-02-26T01:45:31;99895.00;;;4.28;100.00
57990;BME280;58373;51.824;5.564;2024-02-26T01:47:57;99892.13;;;4.32;100.00
57990;BME280;58373;51.824;5.564;2024-02-26T01:50:22;99883.50;;;4.33;100.00
57990;BME280;58373;51.824;5.564;2024-02-26T01:52:48;99882.69;;;4.33;100.00
57990;BME280;58373;51.824;5.564;2024-02-26T01:55:14;99884.13;;;4.37;100.00
57990;BME280;58373;51.824;5.564;2024-02-26T01:57:40;99884.13;;;4.37;100.00
57990;BME280;58373;51.824;5.564;2024-02-26T02:00:06;99880.00;;;4.34;100.00
57990;BME280;58373;51.824;5.564;2024-02-26T02:02:33;99873.09;;;4.35;100.00
57990;BME280;58373;51.824;5.564;2024-02-26T02:04:58;99891.09;;;4.35;100.00
57990;BME280;58373;51.824;5.564;2024-02-26T02:07:23;99897.84;;;4.36;100.00
57990;BME280;58373;51.824;5.564;2024-02-26T02:09:49;99897.66;;;4.39;100.00
57990;BME280;58373;51.824;5.564;2024-02-26T02:12:15;99906.66;;;4.44;100.00
57990;BME280;58373;51.824;5.564;2024-02-26T02:14:40;99900.28;;;4.50;100.00
57990;BME280;58373;51.824;5.564;2024-02-26T02:17:06;99909.22;;;4.44;100.00
57990;BME280;58373;51.824;5.564;2024-02-26T02:19:31;99912.00;;;4.41;100.00
57990;BME280;58373;51.824;5.564;2024-02-26T02:21:57;99919.81;;;4.40;100.00
57990;BME280;58373;51.824;5.564;2024-02-26T02:24:22;99927.03;;;4.35;100.00
57990;BME280;58373;51.824;5.564;2024-02-26T02:26:47;99925.38;;;4.34;100.00
57990;BME280;58373;51.824;5.564;2024-02-26T02:29:12;99924.69;;;4.32;100.00
57990;BME280;58373;51.824;5.564;2024-02-26T02:31:38;99927.25;;;4.32;100.00
57990;BME280;58373;51.824;5.564;2024-02-26T02:34:03;99915.19;;;4.45;100.00
57990;BME280;58373;51.824;5.564;2024-02-26T02:36:28;99912.78;;;4.31;100.00
57990;BME280;58373;51.824;5.564;2024-02-26T02:38:54;99916.25;;;4.30;100.00
57990;BME280;58373;51.824;5.564;2024-02-26T02:41:19;99918.00;;;4.29;100.00
57990;BME280;58373;51.824;5.564;2024-02-26T02:43:44;99922.31;;;4.29;100.00
57990;BME280;58373;51.824;5.564;2024-02-26T02:46:10;99918.94;;;4.28;100.00
57990;BME280;58373;51.824;5.564;2024-02-26T02:48:38;99913.91;;;4.26;100.00
57990;BME280;58373;51.824;5.564;2024-02-26T02:51:03;99911.47;;;4.25;100.00
57990;BME280;58373;51.824;5.564;2024-02-26T02:53:28;99920.19;;;4.22;100.00
57990;BME280;58373;51.824;5.564;2024-02-26T02:55:54;99917.19;;;4.29;100.00
57990;BME280;58373;51.824;5.564;2024-02-26T02:58:19;99923.56;;;4.23;100.00
57990;BME280;58373;51.824;5.564;2024-02-26T03:00:44;99924.81;;;4.30;100.00
57990;BME280;58373;51.824;5.564;2024-02-26T03:03:09;99925.81;;;4.28;100.00
57990;BME280;58373;51.824;5.564;2024-02-26T03:05:34;99925.63;;;4.31;100.00
57990;BME280;58373;51.824;5.564;2024-02-26T03:07:59;99930.53;;;4.34;100.00
57990;BME280;58373;51.824;5.564;2024-02-26T03:10:25;99937.22;;;4.23;100.00
57990;BME280;58373;51.824;5.564;2024-02-26T03:12:50;99936.31;;;4.24;100.00
57990;BME280;58373;51.824;5.564;2024-02-26T03:15:15;99937.94;;;4.25;100.00
57990;BME280;58373;51.824;5.564;2024-02-26T03:17:40;99933.50;;;4.28;100.00
57990;BME280;58373;51.824;5.564;2024-02-26T03:20:06;99931.56;;;4.18;100.00
57990;BME280;58373;51.824;5.564;2024-02-26T03:22:33;99932.44;;;4.19;100.00
57990;BME280;58373;51.824;5.564;2024-02-26T03:24:58;99923.41;;;4.13;100.00
57990;BME280;58373;51.824;5.564;2024-02-26T03:27:23;99942.28;;;4.12;100.00
57990;BME280;58373;51.824;5.564;2024-02-26T03:29:48;99932.22;;;4.09;100.00
57990;BME280;58373;51.824;5.564;2024-02-26T03:32:14;99930.59;;;4.08;100.00
57990;BME280;58373;51.824;5.564;2024-02-26T03:34:39;99944.13;;;4.10;100.00
57990;BME280;58373;51.824;5.564;2024-02-26T03:37:05;99944.94;;;4.11;100.00
57990;BME280;58373;51.824;5.564;2024-02-26T03:39:31;99946.69;;;4.10;100.00
57990;BME280;58373;51.824;5.564;2024-02-26T03:41:56;99938.28;;;4.08;100.00
57990;BME280;58373;51.824;5.564;2024-02-26T03:44:22;99936.13;;;4.15;100.00
57990;BME280;58373;51.824;5.564;2024-02-26T03:46:47;99938.81;;;4.13;100.00
57990;BME280;58373;51.824;5.564;2024-02-26T03:49:12;99932.22;;;4.09;100.00
57990;BME280;58373;51.824;5.564;2024-02-26T03:51:38;99928.97;;;4.07;100.00
57990;BME280;58373;51.824;5.564;2024-02-26T03:54:03;99930.38;;;4.11;100.00
57990;BME280;58373;51.824;5.564;2024-02-26T03:56:28;99917.84;;;4.07;100.00
57990;BME280;58373;51.824;5.564;2024-02-26T03:58:54;99921.97;;;4.09;100.00
57990;BME280;58373;51.824;5.564;2024-02-26T04:01:19;99923.81;;;4.07;100.00
57990;BME280;58373;51.824;5.564;2024-02-26T04:03:44;99929.78;;;4.08;100.00
57990;BME280;58373;51.824;5.564;2024-02-26T04:06:10;99929.97;;;4.05;100.00
57990;BME280;58373;51.824;5.564;2024-02-26T04:08:36;99930.59;;;4.08;100.00
57990;BME280;58373;51.824;5.564;2024-02-26T04:11:01;99928.97;;;4.07;100.00
57990;BME280;58373;51.824;5.564;2024-02-26T04:13:26;99931.28;;;4.10;100.00
57990;BME280;58373;51.824;5.564;2024-02-26T04:15:51;99936.75;;;4.06;100.00
57990;BME280;58373;51.824;5.564;2024-02-26T04:18:16;99933.03;;;4.10;100.00
57990;BME280;58373;51.824;5.564;2024-02-26T04:20:41;99935.91;;;4.05;100.00
57990;BME280;58373;51.824;5.564;2024-02-26T04:23:07;99940.84;;;4.08;100.00
57990;BME280;58373;51.824;5.564;2024-02-26T04:25:32;99938.38;;;4.07;100.00
57990;BME280;58373;51.824;5.564;2024-02-26T04:27:57;99939.22;;;4.07;100.00
57990;BME280;58373;51.824;5.564;2024-02-26T04:30:23;99943.31;;;4.10;100.00
57990;BME280;58373;51.824;5.564;2024-02-26T04:32:48;99937.34;;;4.09;100.00
57990;BME280;58373;51.824;5.564;2024-02-26T04:35:14;99939.09;;;4.09;100.00
57990;BME280;58373;51.824;5.564;2024-02-26T04:37:39;99945.25;;;4.06;100.00
57990;BME280;58373;51.824;5.564;2024-02-26T04:40:04;99956.25;;;4.08;100.00
57990;BME280;58373;51.824;5.564;2024-02-26T04:42:30;99965.69;;;4.08;100.00
57990;BME280;58373;51.824;5.564;2024-02-26T04:44:55;99955.31;;;4.09;100.00
57990;BME280;58373;51.824;5.564;2024-02-26T04:47:20;99962.78;;;4.12;100.00
57990;BME280;58373;51.824;5.564;2024-02-26T04:49:47;99959.53;;;4.10;100.00
57990;BME280;58373;51.824;5.564;2024-02-26T04:52:12;99959.53;;;4.10;100.00
57990;BME280;58373;51.824;5.564;2024-02-26T04:54:38;99968.84;;;4.11;100.00
57990;BME280;58373;51.824;5.564;2024-02-26T04:57:03;99971.66;;;4.08;100.00
57990;BME280;58373;51.824;5.564;2024-02-26T04:59:28;99976.78;;;4.08;100.00
57990;BME280;58373;51.824;5.564;2024-02-26T05:01:53;99965.91;;;4.05;100.00
57990;BME280;58373;51.824;5.564;2024-02-26T05:04:19;99964.16;;;4.05;100.00
57990;BME280;58373;51.824;5.564;2024-02-26T05:06:44;99968.47;;;4.05;100.00
57990;BME280;58373;51.824;5.564;2024-02-26T05:09:09;99968.56;;;4.03;100.00
57990;BME280;58373;51.824;5.564;2024-02-26T05:11:34;99971.84;;;4.05;100.00
57990;BME280;58373;51.824;5.564;2024-02-26T05:14:00;99978.03;;;4.03;100.00
57990;BME280;58373;51.824;5.564;2024-02-26T05:16:25;99986.03;;;3.98;100.00
57990;BME280;58373;51.824;5.564;2024-02-26T05:18:52;99984.16;;;4.00;100.00
57990;BME280;58373;51.824;5.564;2024-02-26T05:21:17;99984.56;;;3.94;100.00
57990;BME280;58373;51.824;5.564;2024-02-26T05:23:42;99981.19;;;3.93;100.00
57990;BME280;58373;51.824;5.564;2024-02-26T05:26:08;99991.56;;;3.92;100.00
57990;BME280;58373;51.824;5.564;2024-02-26T05:28:34;99993.41;;;3.90;100.00
57990;BME280;58373;51.824;5.564;2024-02-26T05:30:59;100004.28;;;3.93;100.00
57990;BME280;58373;51.824;5.564;2024-02-26T05:33:24;99989.94;;;3.91;100.00
57990;BME280;58373;51.824;5.564;2024-02-26T05:35:50;99995.47;;;3.85;100.00
57990;BME280;58373;51.824;5.564;2024-02-26T05:38:15;100000.59;;;3.85;100.00
57990;BME280;58373;51.824;5.564;2024-02-26T05:40:40;99990.34;;;3.85;100.00
57990;BME280;58373;51.824;5.564;2024-02-26T05:43:05;99997.53;;;3.80;100.00
57990;BME280;58373;51.824;5.564;2024-02-26T05:45:31;99992.38;;;3.80;100.00
57990;BME280;58373;51.824;5.564;2024-02-26T05:47:56;100009.41;;;3.81;100.00
57990;BME280;58373;51.824;5.564;2024-02-26T05:50:21;100007.78;;;3.80;100.00
57990;BME280;58373;51.824;5.564;2024-02-26T05:52:46;100009.59;;;3.78;100.00
57990;BME280;58373;51.824;5.564;2024-02-26T05:55:11;100013.22;;;3.88;100.00
57990;BME280;58373;51.824;5.564;2024-02-26T05:57:38;100011.28;;;3.79;100.00
57990;BME280;58373;51.824;5.564;2024-02-26T06:00:03;100013.84;;;3.79;100.00
57990;BME280;58373;51.824;5.564;2024-02-26T06:02:32;100024.59;;;3.84;100.00
57990;BME280;58373;51.824;5.564;2024-02-26T06:04:57;100012.16;;;3.78;100.00
57990;BME280;58373;51.824;5.564;2024-02-26T06:07:23;100015.88;;;3.86;100.00
57990;BME280;58373;51.824;5.564;2024-02-26T06:09:48;100019.88;;;3.78;100.00
57990;BME280;58373;51.824;5.564;2024-02-26T06:12:13;100028.00;;;3.84;100.00
57990;BME280;58373;51.824;5.564;2024-02-26T06:14:38;100023.34;;;3.77;100.00
57990;BME280;58373;51.824;5.564;2024-02-26T06:17:04;100036.06;;;3.78;100.00
57990;BME280;58373;51.824;5.564;2024-02-26T06:19:29;100031.97;;;3.76;100.00
57990;BME280;58373;51.824;5.564;2024-02-26T06:21:54;100033.63;;;3.77;100.00
57990;BME280;58373;51.824;5.564;2024-02-26T06:24:19;100033.22;;;3.83;100.00
57990;BME280;58373;51.824;5.564;2024-02-26T06:26:46;100026.66;;;3.79;100.00
57990;BME280;58373;51.824;5.564;2024-02-26T06:29:12;100030.53;;;3.71;100.00
57990;BME280;58373;51.824;5.564;2024-02-26T06:31:37;100038.97;;;3.73;100.00
57990;BME280;58373;51.824;5.564;2024-02-26T06:34:02;100047.38;;;3.76;100.00
57990;BME280;58373;51.824;5.564;2024-02-26T06:36:28;100039.88;;;3.72;100.00
57990;BME280;58373;51.824;5.564;2024-02-26T06:38:53;100040.78;;;3.71;100.00
57990;BME280;58373;51.824;5.564;2024-02-26T06:41:19;100051.78;;;3.73;100.00
57990;BME280;58373;51.824;5.564;2024-02-26T06:43:44;100049.53;;;3.82;100.00
57990;BME280;58373;51.824;5.564;2024-02-26T06:46:09;100057.44;;;3.79;100.00
57990;BME280;58373;51.824;5.564;2024-02-26T06:48:34;100060.19;;;3.76;100.00
57990;BME280;58373;51.824;5.564;2024-02-26T06:51:01;100063.56;;;3.76;100.00
57990;BME280;58373;51.824;5.564;2024-02-26T06:53:27;100069.63;;;3.75;100.00
57990;BME280;58373;51.824;5.564;2024-02-26T06:55:52;100074.47;;;3.80;100.00
57990;BME280;58373;51.824;5.564;2024-02-26T06:58:17;100068.59;;;3.78;100.00
57990;BME280;58373;51.824;5.564;2024-02-26T07:00:42;100091.09;;;3.87;100.00
57990;BME280;58373;51.824;5.564;2024-02-26T07:03:07;100076.81;;;3.83;100.00
57990;BME280;58373;51.824;5.564;2024-02-26T07:05:33;100081.41;;;3.78;100.00
57990;BME280;58373;51.824;5.564;2024-02-26T07:07:58;100083.81;;;3.81;100.00
57990;BME280;58373;51.824;5.564;2024-02-26T07:10:23;100080.53;;;3.79;100.00
57990;BME280;58373;51.824;5.564;2024-02-26T07:12:49;100084.91;;;3.77;100.00
57990;BME280;58373;51.824;5.564;2024-02-26T07:15:14;100093.53;;;3.76;100.00
57990;BME280;58373;51.824;5.564;2024-02-26T07:17:39;100093.66;;;3.87;100.00
57990;BME280;58373;51.824;5.564;2024-02-26T07:20:12;100095.00;;;3.80;100.00
57990;BME280;58373;51.824;5.564;2024-02-26T07:22:37;100103.22;;;3.85;100.00
57990;BME280;58373;51.824;5.564;2024-02-26T07:25:02;100107.53;;;3.84;100.00
57990;BME280;58373;51.824;5.564;2024-02-26T07:27:28;100104.44;;;3.79;100.00
57990;BME280;58373;51.824;5.564;2024-02-26T07:29:53;100110.91;;;3.85;100.00
57990;BME280;58373;51.824;5.564;2024-02-26T07:32:19;100119.81;;;3.79;100.00
57990;BME280;58373;51.824;5.564;2024-02-26T07:34:44;100108.53;;;3.82;100.00
57990;BME280;58373;51.824;5.564;2024-02-26T07:37:09;100115.69;;;3.77;100.00
57990;BME280;58373;51.824;5.564;2024-02-26T07:39:35;100114.88;;;3.76;100.00
57990;BME280;58373;51.824;5.564;2024-02-26T07:42:00;100111.66;;;3.72;100.00
57990;BME280;58373;51.824;5.564;2024-02-26T07:44:25;100126.88;;;3.76;100.00
57990;BME280;58373;51.824;5.564;2024-02-26T07:46:50;100122.03;;;3.71;100.00
57990;BME280;58373;51.824;5.564;2024-02-26T07:49:15;100119.00;;;3.79;100.00
57990;BME280;58373;51.824;5.564;2024-02-26T07:51:41;100125.94;;;3.77;100.00
57990;BME280;58373;51.824;5.564;2024-02-26T07:54:06;100138.25;;;3.71;100.00
57990;BME280;58373;51.824;5.564;2024-02-26T07:56:31;100136.59;;;3.70;100.00
57990;BME280;58373;51.824;5.564;2024-02-26T07:58:56;100147.97;;;3.66;100.00
57990;BME280;58373;51.824;5.564;2024-02-26T08:01:21;100143.63;;;3.81;100.00
57990;BME280;58373;51.824;5.564;2024-02-26T08:03:47;100141.56;;;3.73;100.00
57990;BME280;58373;51.824;5.564;2024-02-26T08:06:12;100142.25;;;3.76;100.00
57990;BME280;58373;51.824;5.564;2024-02-26T08:08:37;100155.09;;;3.76;100.00
57990;BME280;58373;51.824;5.564;2024-02-26T08:11:03;100151.00;;;3.73;100.00
57990;BME280;58373;51.824;5.564;2024-02-26T08:13:28;100162.25;;;3.70;100.00
57990;BME280;58373;51.824;5.564;2024-02-26T08:15:53;100153.63;;;3.71;100.00
57990;BME280;58373;51.824;5.564;2024-02-26T08:18:19;100159.50;;;3.73;100.00
57990;BME280;58373;51.824;5.564;2024-02-26T08:20:44;100157.66;;;3.76;100.00
57990;BME280;58373;51.824;5.564;2024-02-26T08:23:09;100155.09;;;3.76;100.00
57990;BME280;58373;51.824;5.564;2024-02-26T08:25:34;100166.97;;;3.77;100.00
57990;BME280;58373;51.824;5.564;2024-02-26T08:28:00;100164.53;;;3.75;100.00
57990;BME280;58373;51.824;5.564;2024-02-26T08:30:25;100176.53;;;3.75;100.00
57990;BME280;58373;51.824;5.564;2024-02-26T08:32:50;100179.09;;;3.75;100.00
57990;BME280;58373;51.824;5.564;2024-02-26T08:35:16;100165.34;;;3.76;100.00
57990;BME280;58373;51.824;5.564;2024-02-26T08:37:44;100184.94;;;3.77;100.00
57990;BME280;58373;51.824;5.564;2024-02-26T08:40:09;100171.94;;;3.80;100.00
57990;BME280;58373;51.824;5.564;2024-02-26T08:42:34;100177.25;;;3.77;100.00
57990;BME280;58373;51.824;5.564;2024-02-26T08:45:00;100185.38;;;3.83;100.00
57990;BME280;58373;51.824;5.564;2024-02-26T08:47:26;100196.44;;;3.84;100.00
57990;BME280;58373;51.824;5.564;2024-02-26T08:49:51;100190.09;;;3.89;100.00
57990;BME280;58373;51.824;5.564;2024-02-26T08:52:16;100192.78;;;3.88;100.00
57990;BME280;58373;51.824;5.564;2024-02-26T08:54:41;100200.56;;;3.86;100.00
57990;BME280;58373;51.824;5.564;2024-02-26T08:57:07;100200.28;;;3.91;100.00
57990;BME280;58373;51.824;5.564;2024-02-26T08:59:32;100202.25;;;4.00;100.00
57990;BME280;58373;51.824;5.564;2024-02-26T09:01:57;100209.53;;;3.93;100.00
57990;BME280;58373;51.824;5.564;2024-02-26T09:04:22;100208.31;;;3.99;100.00
57990;BME280;58373;51.824;5.564;2024-02-26T09:06:48;100233.16;;;3.98;100.00
57990;BME280;58373;51.824;5.564;2024-02-26T09:09:14;100227.59;;;3.92;100.00
57990;BME280;58373;51.824;5.564;2024-02-26T09:11:39;100226.75;;;3.91;100.00
57990;BME280;58373;51.824;5.564;2024-02-26T09:14:05;100223.38;;;3.91;100.00
57990;BME280;58373;51.824;5.564;2024-02-26T09:16:30;100227.59;;;3.92;100.00
57990;BME280;58373;51.824;5.564;2024-02-26T09:18:55;100233.72;;;3.89;100.00
57990;BME280;58373;51.824;5.564;2024-02-26T09:21:21;100229.94;;;3.95;100.00
57990;BME280;58373;51.824;5.564;2024-02-26T09:23:49;100236.19;;;3.91;100.00
57990;BME280;58373;51.824;5.564;2024-02-26T09:26:14;100244.50;;;3.94;100.00
57990;BME280;58373;51.824;5.564;2024-02-26T09:28:39;100249.56;;;3.96;100.00
57990;BME280;58373;51.824;5.564;2024-02-26T09:31:05;100253.94;;;3.94;100.00
57990;BME280;58373;51.824;5.564;2024-02-26T09:33:31;100258.16;;;3.95;100.00
57990;BME280;58373;51.824;5.564;2024-02-26T09:35:56;100264.97;;;3.96;100.00
57990;BME280;58373;51.824;5.564;2024-02-26T09:38:21;100264.75;;;3.99;100.00
57990;BME280;58373;51.824;5.564;2024-02-26T09:40:47;100273.38;;;3.98;100.00
57990;BME280;58373;51.824;5.564;2024-02-26T09:43:13;100265.13;;;3.93;100.00
57990;BME280;58373;51.824;5.564;2024-02-26T09:45:39;100265.13;;;3.93;100.00
57990;BME280;58373;51.824;5.564;2024-02-26T09:48:05;100267.00;;;3.91;100.00
57990;BME280;58373;51.824;5.564;2024-02-26T09:50:33;100274.59;;;3.92;100.00
57990;BME280;58373;51.824;5.564;2024-02-26T09:52:58;100266.59;;;3.97;100.00
57990;BME280;58373;51.824;5.564;2024-02-26T09:55:25;100278.78;;;3.93;100.00
57990;BME280;58373;51.824;5.564;2024-02-26T09:57:51;100285.28;;;3.99;100.00
57990;BME280;58373;51.824;5.564;2024-02-26T10:00:20;100290.78;;;3.93;100.00
57990;BME280;58373;51.824;5.564;2024-02-26T10:02:46;100288.13;;;3.94;100.00
57990;BME280;58373;51.824;5.564;2024-02-26T10:05:16;100288.22;;;3.93;100.00
57990;BME280;58373;51.824;5.564;2024-02-26T10:07:43;100305.09;;;3.97;100.00
57990;BME280;58373;51.824;5.564;2024-02-26T10:10:08;100310.13;;;3.98;100.00
57990;BME280;58373;51.824;5.564;2024-02-26T10:12:34;100302.13;;;4.03;100.00
57990;BME280;58373;51.824;5.564;2024-02-26T10:14:59;100317.00;;;3.98;100.00
57990;BME280;58373;51.824;5.564;2024-02-26T10:17:24;100317.91;;;3.97;100.00
57990;BME280;58373;51.824;5.564;2024-02-26T10:19:50;100331.47;;;3.99;100.00
57990;BME280;58373;51.824;5.564;2024-02-26T10:22:16;100321.19;;;3.99;100.00
57990;BME280;58373;51.824;5.564;2024-02-26T10:24:42;100338.25;;;4.00;100.00
57990;BME280;58373;51.824;5.564;2024-02-26T10:27:07;100333.31;;;3.97;100.00
57990;BME280;58373;51.824;5.564;2024-02-26T10:29:34;100343.56;;;3.97;100.00
57990;BME280;58373;51.824;5.564;2024-02-26T10:31:59;100348.50;;;4.00;100.00
57990;BME280;58373;51.824;5.564;2024-02-26T10:34:24;100351.28;;;3.97;100.00
57990;BME280;58373;51.824;5.564;2024-02-26T10:36:50;100345.94;;;4.00;100.00
57990;BME280;58373;51.824;5.564;2024-02-26T10:39:15;100349.53;;;3.97;100.00
57990;BME280;58373;51.824;5.564;2024-02-26T10:41:41;100356.47;;;3.95;100.00
57990;BME280;58373;51.824;5.564;2024-02-26T10:44:10;100351.28;;;3.97;100.00
57990;BME280;58373;51.824;5.564;2024-02-26T10:46:42;100362.63;;;3.93;100.00
57990;BME280;58373;51.824;5.564;2024-02-26T10:49:12;100372.72;;;3.96;100.00
57990;BME280;58373;51.824;5.564;2024-02-26T10:51:38;100369.78;;;4.02;100.00
57990;BME280;58373;51.824;5.564;2024-02-26T10:54:05;100378.69;;;3.96;100.00
57990;BME280;58373;51.824;5.564;2024-02-26T10:56:33;100372.53;;;3.99;100.00
57990;BME280;58373;51.824;5.564;2024-02-26T10:58:58;100383.31;;;4.04;100.00
57990;BME280;58373;51.824;5.564;2024-02-26T11:01:24;100402.75;;;4.08;100.00
57990;BME280;58373;51.824;5.564;2024-02-26T11:03:50;100410.72;;;4.04;100.00
57990;BME280;58373;51.824;5.564;2024-02-26T11:06:15;100411.56;;;4.04;100.00
57990;BME280;58373;51.824;5.564;2024-02-26T11:08:41;100413.19;;;4.05;100.00
57990;BME280;58373;51.824;5.564;2024-02-26T11:11:06;100414.84;;;4.06;100.00
57990;BME280;58373;51.824;5.564;2024-02-26T11:13:32;100416.50;;;4.07;100.00
57990;BME280;58373;51.824;5.564;2024-02-26T11:15:58;100418.97;;;4.09;100.00
57990;BME280;58373;51.824;5.564;2024-02-26T11:18:23;100427.59;;;4.08;100.00
57990;BME280;58373;51.824;5.564;2024-02-26T11:20:51;100429.69;;;4.15;100.00
57990;BME280;58373;51.824;5.564;2024-02-26T11:23:17;100416.50;;;4.07;100.00
57990;BME280;58373;51.824;5.564;2024-02-26T11:25:42;100425.03;;;4.08;100.00
57990;BME280;58373;51.824;5.564;2024-02-26T11:28:12;100428.41;;;4.08;100.00
57990;BME280;58373;51.824;5.564;2024-02-26T11:30:39;100426.78;;;4.07;100.00
57990;BME280;58373;51.824;5.564;2024-02-26T11:33:07;100426.78;;;4.07;100.00
57990;BME280;58373;51.824;5.564;2024-02-26T11:35:33;100431.91;;;4.07;100.00
57990;BME280;58373;51.824;5.564;2024-02-26T11:37:59;100430.22;;;4.06;100.00
57990;BME280;58373;51.824;5.564;2024-02-26T11:40:26;100432.72;;;4.08;100.00
57990;BME280;58373;51.824;5.564;2024-02-26T11:42:51;100429.13;;;4.10;100.00
57990;BME280;58373;51.824;5.564;2024-02-26T11:48:02;100443.44;;;4.14;100.00
57990;BME280;58373;51.824;5.564;2024-02-26T11:50:39;100435.19;;;4.09;100.00
57990;BME280;58373;51.824;5.564;2024-02-26T11:53:24;100436.19;;;4.07;100.00
57990;BME280;58373;51.824;5.564;2024-02-26T11:58:34;100445.84;;;4.03;100.00
57990;BME280;58373;51.824;5.564;2024-02-26T12:00:59;100438.69;;;4.08;100.00
57990;BME280;58373;51.824;5.564;2024-02-26T12:03:25;100441.31;;;4.07;100.00
57990;BME280;58373;51.824;5.564;2024-02-26T12:05:51;100443.63;;;4.11;100.00
57990;BME280;58373;51.824;5.564;2024-02-26T12:08:16;100455.91;;;4.06;100.00
57990;BME280;58373;51.824;5.564;2024-02-26T12:10:44;100457.75;;;4.04;100.00
57990;BME280;58373;51.824;5.564;2024-02-26T12:13:12;100456.53;;;4.10;100.00
57990;BME280;58373;51.824;5.564;2024-02-26T12:15:38;100455.06;;;4.06;100.00
57990;BME280;58373;51.824;5.564;2024-02-26T12:18:05;100467.84;;;4.07;100.00
57990;BME280;58373;51.824;5.564;2024-02-26T12:20:30;100463.16;;;4.14;100.00
57990;BME280;58373;51.824;5.564;2024-02-26T12:22:56;100465.63;;;4.15;100.00
57990;BME280;58373;51.824;5.564;2024-02-26T12:25:24;100480.75;;;4.20;100.00
57990;BME280;58373;51.824;5.564;2024-02-26T12:27:51;100477.72;;;4.13;100.00
57990;BME280;58373;51.824;5.564;2024-02-26T12:30:16;100493.94;;;4.14;100.00
57990;BME280;58373;51.824;5.564;2024-02-26T12:32:41;100494.13;;;4.11;100.00
57990;BME280;58373;51.824;5.564;2024-02-26T12:35:07;100510.19;;;4.14;100.00
57990;BME280;58373;51.824;5.564;2024-02-26T12:37:32;100502.53;;;4.13;100.00
57990;BME280;58373;51.824;5.564;2024-02-26T12:39:57;100505.22;;;4.11;100.00
57990;BME280;58373;51.824;5.564;2024-02-26T12:42:22;100510.34;;;4.11;100.00
57990;BME280;58373;51.824;5.564;2024-02-26T12:44:49;100503.41;;;4.13;100.00
57990;BME280;58373;51.824;5.564;2024-02-26T12:47:14;100520.59;;;4.11;100.00
57990;BME280;58373;51.824;5.564;2024-02-26T12:49:42;100509.53;;;4.11;100.00
57990;BME280;58373;51.824;5.564;2024-02-26T12:52:07;100515.09;;;4.17;100.00